sensor_id;sensor_type;location;lat;lon;timestamp;pressure;altitude;pressure_sealevel;temperature
68027;BMP180;54819;48.030;14.710;2023-02-15T00:02:02;99067.20;;;2.00
68027;BMP180;54819;48.030;14.710;2023-02-15T00:04:32;99062.40;;;2.00
68027;BMP180;54819;48.030;14.710;2023-02-15T00:07:18;99064.20;;;2.00
68027;BMP180;54819;48.030;14.710;2023-02-15T00:09:46;99065.80;;;2.10
68027;BMP180;54819;48.030;14.710;2023-02-15T00:12:14;99068.80;;;2.10
68027;BMP180;54819;48.030;14.710;2023-02-15T00:14:42;99064.00;;;2.10
68027;BMP180;54819;48.030;14.710;2023-02-15T00:17:09;99065.00;;;2.10
68027;BMP180;54819;48.030;14.710;2023-02-15T00:19:36;99062.80;;;2.10
68027;BMP180;54819;48.030;14.710;2023-02-15T00:22:04;99053.40;;;2.10
68027;BMP180;54819;48.030;14.710;2023-02-15T00:24:31;99053.60;;;2.10
68027;BMP180;54819;48.030;14.710;2023-02-15T00:26:59;99055.20;;;2.10
68027;BMP180;54819;48.030;14.710;2023-02-15T00:29:26;99052.80;;;2.10
68027;BMP180;54819;48.030;14.710;2023-02-15T00:31:54;99051.40;;;2.10
68027;BMP180;54819;48.030;14.710;2023-02-15T00:34:25;99046.80;;;2.10
68027;BMP180;54819;48.030;14.710;2023-02-15T00:36:52;99047.60;;;2.10
68027;BMP180;54819;48.030;14.710;2023-02-15T00:39:20;99050.00;;;2.20
68027;BMP180;54819;48.030;14.710;2023-02-15T00:41:48;99053.80;;;2.20
68027;BMP180;54819;48.030;14.710;2023-02-15T00:44:15;99055.60;;;2.20
68027;BMP180;54819;48.030;14.710;2023-02-15T00:46:44;99048.60;;;2.20
68027;BMP180;54819;48.030;14.710;2023-02-15T00:49:14;99051.40;;;2.20
68027;BMP180;54819;48.030;14.710;2023-02-15T00:51:44;99045.60;;;2.20
68027;BMP180;54819;48.030;14.710;2023-02-15T00:54:12;99047.20;;;2.20
68027;BMP180;54819;48.030;14.710;2023-02-15T00:56:39;99047.80;;;2.20
68027;BMP180;54819;48.030;14.710;2023-02-15T00:59:08;99039.20;;;2.20
68027;BMP180;54819;48.030;14.710;2023-02-15T01:01:36;99041.40;;;2.20
68027;BMP180;54819;48.030;14.710;2023-02-15T01:04:03;99034.00;;;2.20
68027;BMP180;54819;48.030;14.710;2023-02-15T01:06:33;99033.00;;;2.20
68027;BMP180;54819;48.030;14.710;2023-02-15T01:09:00;99032.20;;;2.20
68027;BMP180;54819;48.030;14.710;2023-02-15T01:11:28;99030.80;;;2.20
68027;BMP180;54819;48.030;14.710;2023-02-15T01:13:57;99022.20;;;2.20
68027;BMP180;54819;48.030;14.710;2023-02-15T01:16:27;99019.00;;;2.20
68027;BMP180;54819;48.030;14.710;2023-02-15T01:18:58;99016.80;;;2.20
68027;BMP180;54819;48.030;14.710;2023-02-15T01:21:26;99015.00;;;2.28
68027;BMP180;54819;48.030;14.710;2023-02-15T01:23:56;99008.80;;;2.30
68027;BMP180;54819;48.030;14.710;2023-02-15T01:26:29;99008.80;;;2.30
68027;BMP180;54819;48.030;14.710;2023-02-15T01:28:59;99006.40;;;2.30
68027;BMP180;54819;48.030;14.710;2023-02-15T01:31:26;99007.20;;;2.30
68027;BMP180;54819;48.030;14.710;2023-02-15T01:34:00;98999.60;;;2.30
68027;BMP180;54819;48.030;14.710;2023-02-15T01:36:30;98998.20;;;2.30
68027;BMP180;54819;48.030;14.710;2023-02-15T01:38:58;98987.80;;;2.30
68027;BMP180;54819;48.030;14.710;2023-02-15T01:41:25;98989.60;;;2.30
68027;BMP180;54819;48.030;14.710;2023-02-15T01:43:59;98984.00;;;2.36
68027;BMP180;54819;48.030;14.710;2023-02-15T01:46:45;98985.00;;;2.40
68027;BMP180;54819;48.030;14.710;2023-02-15T01:49:17;98979.00;;;2.40
68027;BMP180;54819;48.030;14.710;2023-02-15T01:51:48;98979.80;;;2.40
68027;BMP180;54819;48.030;14.710;2023-02-15T01:56:48;98976.00;;;2.32
68027;BMP180;54819;48.030;14.710;2023-02-15T01:59:19;98976.20;;;2.30
68027;BMP180;54819;48.030;14.710;2023-02-15T02:01:50;98967.80;;;2.20
68027;BMP180;54819;48.030;14.710;2023-02-15T02:04:37;98965.40;;;2.20
68027;BMP180;54819;48.030;14.710;2023-02-15T02:07:09;98962.60;;;2.20
68027;BMP180;54819;48.030;14.710;2023-02-15T02:09:37;98957.60;;;2.30
68027;BMP180;54819;48.030;14.710;2023-02-15T02:12:07;98954.00;;;2.30
68027;BMP180;54819;48.030;14.710;2023-02-15T02:14:39;98950.40;;;2.30
68027;BMP180;54819;48.030;14.710;2023-02-15T02:17:12;98942.40;;;2.28
68027;BMP180;54819;48.030;14.710;2023-02-15T02:20:14;98935.60;;;2.30
68027;BMP180;54819;48.030;14.710;2023-02-15T02:25:55;98927.40;;;2.30
68027;BMP180;54819;48.030;14.710;2023-02-15T02:31:48;98920.80;;;2.40
68027;BMP180;54819;48.030;14.710;2023-02-15T02:34:29;98919.00;;;2.30
68027;BMP180;54819;48.030;14.710;2023-02-15T02:37:16;98919.20;;;2.30
68027;BMP180;54819;48.030;14.710;2023-02-15T02:42:54;98918.40;;;2.30
68027;BMP180;54819;48.030;14.710;2023-02-15T02:45:29;98918.60;;;2.30
68027;BMP180;54819;48.030;14.710;2023-02-15T02:48:06;98919.40;;;2.26
68027;BMP180;54819;48.030;14.710;2023-02-15T02:50:34;98914.20;;;2.20
68027;BMP180;54819;48.030;14.710;2023-02-15T02:53:02;98909.80;;;2.20
68027;BMP180;54819;48.030;14.710;2023-02-15T02:55:46;98911.20;;;2.20
68027;BMP180;54819;48.030;14.710;2023-02-15T02:58:23;98907.80;;;2.20
68027;BMP180;54819;48.030;14.710;2023-02-15T03:00:57;98901.40;;;2.20
68027;BMP180;54819;48.030;14.710;2023-02-15T03:03:39;98902.80;;;2.20
68027;BMP180;54819;48.030;14.710;2023-02-15T03:06:13;98900.20;;;2.18
68027;BMP180;54819;48.030;14.710;2023-02-15T03:08:48;98897.00;;;2.20
68027;BMP180;54819;48.030;14.710;2023-02-15T03:11:17;98896.20;;;2.20
68027;BMP180;54819;48.030;14.710;2023-02-15T03:13:49;98894.40;;;2.20
68027;BMP180;54819;48.030;14.710;2023-02-15T03:16:20;98892.40;;;2.20
68027;BMP180;54819;48.030;14.710;2023-02-15T03:19:05;98892.20;;;2.16
68027;BMP180;54819;48.030;14.710;2023-02-15T03:21:38;98894.80;;;2.14
68027;BMP180;54819;48.030;14.710;2023-02-15T03:24:13;98891.40;;;2.16
68027;BMP180;54819;48.030;14.710;2023-02-15T03:26:46;98890.20;;;2.20
68027;BMP180;54819;48.030;14.710;2023-02-15T03:29:15;98897.00;;;2.20
68027;BMP180;54819;48.030;14.710;2023-02-15T03:31:46;98894.40;;;2.20
68027;BMP180;54819;48.030;14.710;2023-02-15T03:34:18;98895.20;;;2.10
68027;BMP180;54819;48.030;14.710;2023-02-15T03:37:30;98901.60;;;2.10
68027;BMP180;54819;48.030;14.710;2023-02-15T03:40:08;98901.00;;;2.10
68027;BMP180;54819;48.030;14.710;2023-02-15T03:43:12;98898.20;;;2.10
68027;BMP180;54819;48.030;14.710;2023-02-15T03:45:42;98892.80;;;2.10
68027;BMP180;54819;48.030;14.710;2023-02-15T03:48:25;98896.80;;;2.20
68027;BMP180;54819;48.030;14.710;2023-02-15T03:50:57;98892.40;;;2.20
68027;BMP180;54819;48.030;14.710;2023-02-15T03:53:46;98888.80;;;2.22
68027;BMP180;54819;48.030;14.710;2023-02-15T03:56:14;98891.80;;;2.30
68027;BMP180;54819;48.030;14.710;2023-02-15T03:58:41;98898.40;;;2.30
68027;BMP180;54819;48.030;14.710;2023-02-15T04:04:25;98892.80;;;2.30
68027;BMP180;54819;48.030;14.710;2023-02-15T04:06:56;98894.80;;;2.32
68027;BMP180;54819;48.030;14.710;2023-02-15T04:09:33;98892.00;;;2.40
68027;BMP180;54819;48.030;14.710;2023-02-15T04:12:22;98893.20;;;2.40
68027;BMP180;54819;48.030;14.710;2023-02-15T04:14:50;98892.80;;;2.40
68027;BMP180;54819;48.030;14.710;2023-02-15T04:17:37;98894.60;;;2.36
68027;BMP180;54819;48.030;14.710;2023-02-15T04:20:05;98899.20;;;2.36
68027;BMP180;54819;48.030;14.710;2023-02-15T04:22:51;98896.80;;;2.32
68027;BMP180;54819;48.030;14.710;2023-02-15T04:25:36;98891.80;;;2.40
68027;BMP180;54819;48.030;14.710;2023-02-15T04:28:04;98889.60;;;2.40
68027;BMP180;54819;48.030;14.710;2023-02-15T04:30:34;98884.40;;;2.40
68027;BMP180;54819;48.030;14.710;2023-02-15T04:33:01;98888.60;;;2.40
68027;BMP180;54819;48.030;14.710;2023-02-15T04:35:31;98888.40;;;2.40
68027;BMP180;54819;48.030;14.710;2023-02-15T04:38:00;98888.20;;;2.40
68027;BMP180;54819;48.030;14.710;2023-02-15T04:40:30;98887.00;;;2.44
68027;BMP180;54819;48.030;14.710;2023-02-15T04:43:06;98884.80;;;2.50
68027;BMP180;54819;48.030;14.710;2023-02-15T04:45:34;98887.00;;;2.50
68027;BMP180;54819;48.030;14.710;2023-02-15T04:48:01;98885.80;;;2.50
68027;BMP180;54819;48.030;14.710;2023-02-15T04:50:28;98885.80;;;2.50
68027;BMP180;54819;48.030;14.710;2023-02-15T04:52:55;98883.00;;;2.50
68027;BMP180;54819;48.030;14.710;2023-02-15T04:55:22;98883.80;;;2.52
68027;BMP180;54819;48.030;14.710;2023-02-15T04:57:49;98881.40;;;2.50
68027;BMP180;54819;48.030;14.710;2023-02-15T05:00:26;98879.20;;;2.58
68027;BMP180;54819;48.030;14.710;2023-02-15T05:02:54;98878.40;;;2.60
68027;BMP180;54819;48.030;14.710;2023-02-15T05:05:21;98877.60;;;2.60
68027;BMP180;54819;48.030;14.710;2023-02-15T05:07:51;98875.80;;;2.60
68027;BMP180;54819;48.030;14.710;2023-02-15T05:10:18;98879.20;;;2.60
68027;BMP180;54819;48.030;14.710;2023-02-15T05:12:48;98881.40;;;2.60
68027;BMP180;54819;48.030;14.710;2023-02-15T05:15:15;98877.60;;;2.60
68027;BMP180;54819;48.030;14.710;2023-02-15T05:17:42;98879.00;;;2.60
68027;BMP180;54819;48.030;14.710;2023-02-15T05:20:10;98880.40;;;2.60
68027;BMP180;54819;48.030;14.710;2023-02-15T05:22:37;98878.00;;;2.56
68027;BMP180;54819;48.030;14.710;2023-02-15T05:25:04;98879.00;;;2.58
68027;BMP180;54819;48.030;14.710;2023-02-15T05:27:50;98880.80;;;2.60
68027;BMP180;54819;48.030;14.710;2023-02-15T05:30:37;98883.20;;;2.60
68027;BMP180;54819;48.030;14.710;2023-02-15T05:33:07;98880.60;;;2.60
68027;BMP180;54819;48.030;14.710;2023-02-15T05:35:37;98886.80;;;2.60
68027;BMP180;54819;48.030;14.710;2023-02-15T05:38:09;98885.80;;;2.58
68027;BMP180;54819;48.030;14.710;2023-02-15T05:40:39;98888.00;;;2.50
68027;BMP180;54819;48.030;14.710;2023-02-15T05:43:06;98888.80;;;2.46
68027;BMP180;54819;48.030;14.710;2023-02-15T05:45:36;98890.20;;;2.40
68027;BMP180;54819;48.030;14.710;2023-02-15T05:48:04;98892.80;;;2.40
68027;BMP180;54819;48.030;14.710;2023-02-15T05:50:31;98891.00;;;2.40
68027;BMP180;54819;48.030;14.710;2023-02-15T05:53:00;98890.20;;;2.40
68027;BMP180;54819;48.030;14.710;2023-02-15T05:55:27;98889.60;;;2.40
68027;BMP180;54819;48.030;14.710;2023-02-15T05:57:59;98890.00;;;2.40
68027;BMP180;54819;48.030;14.710;2023-02-15T06:00:29;98890.40;;;2.30
68027;BMP180;54819;48.030;14.710;2023-02-15T06:02:58;98891.00;;;2.30
68027;BMP180;54819;48.030;14.710;2023-02-15T06:05:25;98892.80;;;2.30
68027;BMP180;54819;48.030;14.710;2023-02-15T06:07:53;98895.60;;;2.22
68027;BMP180;54819;48.030;14.710;2023-02-15T06:10:20;98896.60;;;2.22
68027;BMP180;54819;48.030;14.710;2023-02-15T06:12:47;98902.20;;;2.20
68027;BMP180;54819;48.030;14.710;2023-02-15T06:15:14;98901.80;;;2.20
68027;BMP180;54819;48.030;14.710;2023-02-15T06:17:41;98900.40;;;2.26
68027;BMP180;54819;48.030;14.710;2023-02-15T06:20:12;98904.60;;;2.30
68027;BMP180;54819;48.030;14.710;2023-02-15T06:22:42;98903.20;;;2.26
68027;BMP180;54819;48.030;14.710;2023-02-15T06:25:14;98904.40;;;2.30
68027;BMP180;54819;48.030;14.710;2023-02-15T06:27:53;98909.20;;;2.34
68027;BMP180;54819;48.030;14.710;2023-02-15T06:30:21;98909.80;;;2.40
68027;BMP180;54819;48.030;14.710;2023-02-15T06:32:48;98914.00;;;2.40
68027;BMP180;54819;48.030;14.710;2023-02-15T06:35:15;98918.00;;;2.40
68027;BMP180;54819;48.030;14.710;2023-02-15T06:37:45;98920.00;;;2.40
68027;BMP180;54819;48.030;14.710;2023-02-15T06:40:12;98928.60;;;2.40
68027;BMP180;54819;48.030;14.710;2023-02-15T06:42:39;98929.60;;;2.40
68027;BMP180;54819;48.030;14.710;2023-02-15T06:45:06;98930.20;;;2.40
68027;BMP180;54819;48.030;14.710;2023-02-15T06:47:34;98935.60;;;2.42
68027;BMP180;54819;48.030;14.710;2023-02-15T06:50:05;98934.40;;;2.50
68027;BMP180;54819;48.030;14.710;2023-02-15T06:52:33;98935.80;;;2.50
68027;BMP180;54819;48.030;14.710;2023-02-15T06:55:00;98939.80;;;2.50
68027;BMP180;54819;48.030;14.710;2023-02-15T06:57:28;98942.20;;;2.60
68027;BMP180;54819;48.030;14.710;2023-02-15T06:59:57;98944.60;;;2.60
68027;BMP180;54819;48.030;14.710;2023-02-15T07:02:25;98950.00;;;2.62
68027;BMP180;54819;48.030;14.710;2023-02-15T07:04:52;98943.60;;;2.70
68027;BMP180;54819;48.030;14.710;2023-02-15T07:07:19;98943.00;;;2.70
68027;BMP180;54819;48.030;14.710;2023-02-15T07:09:47;98943.00;;;2.70
68027;BMP180;54819;48.030;14.710;2023-02-15T07:12:14;98940.80;;;2.80
68027;BMP180;54819;48.030;14.710;2023-02-15T07:15:08;98941.20;;;2.80
68027;BMP180;54819;48.030;14.710;2023-02-15T07:17:36;98939.00;;;2.80
68027;BMP180;54819;48.030;14.710;2023-02-15T07:20:05;98940.00;;;2.80
68027;BMP180;54819;48.030;14.710;2023-02-15T07:22:37;98939.00;;;2.82
68027;BMP180;54819;48.030;14.710;2023-02-15T07:25:05;98937.40;;;2.90
68027;BMP180;54819;48.030;14.710;2023-02-15T07:27:33;98934.20;;;2.90
68027;BMP180;54819;48.030;14.710;2023-02-15T07:30:01;98931.00;;;3.00
68027;BMP180;54819;48.030;14.710;2023-02-15T07:32:33;98929.80;;;3.00
68027;BMP180;54819;48.030;14.710;2023-02-15T07:35:00;98930.80;;;3.06
68027;BMP180;54819;48.030;14.710;2023-02-15T07:37:28;98935.40;;;3.10
68027;BMP180;54819;48.030;14.710;2023-02-15T07:39:55;98934.60;;;3.12
68027;BMP180;54819;48.030;14.710;2023-02-15T07:42:23;98940.20;;;3.20
68027;BMP180;54819;48.030;14.710;2023-02-15T07:44:50;98938.60;;;3.20
68027;BMP180;54819;48.030;14.710;2023-02-15T07:47:17;98937.60;;;3.26
68027;BMP180;54819;48.030;14.710;2023-02-15T07:49:45;98938.40;;;3.30
68027;BMP180;54819;48.030;14.710;2023-02-15T07:52:12;98932.40;;;3.30
68027;BMP180;54819;48.030;14.710;2023-02-15T07:54:39;98930.80;;;3.28
68027;BMP180;54819;48.030;14.710;2023-02-15T07:57:06;98938.00;;;3.30
68027;BMP180;54819;48.030;14.710;2023-02-15T07:59:34;98939.20;;;3.30
68027;BMP180;54819;48.030;14.710;2023-02-15T08:02:01;98936.40;;;3.32
68027;BMP180;54819;48.030;14.710;2023-02-15T08:04:27;98932.20;;;3.40
68027;BMP180;54819;48.030;14.710;2023-02-15T08:06:58;98937.80;;;3.50
68027;BMP180;54819;48.030;14.710;2023-02-15T08:09:25;98933.40;;;3.50
68027;BMP180;54819;48.030;14.710;2023-02-15T08:11:52;98934.20;;;3.60
68027;BMP180;54819;48.030;14.710;2023-02-15T08:14:20;98930.60;;;3.60
68027;BMP180;54819;48.030;14.710;2023-02-15T08:16:55;98938.40;;;3.70
68027;BMP180;54819;48.030;14.710;2023-02-15T08:19:28;98938.20;;;3.70
68027;BMP180;54819;48.030;14.710;2023-02-15T08:22:06;98935.60;;;3.80
68027;BMP180;54819;48.030;14.710;2023-02-15T08:24:35;98931.60;;;3.90
68027;BMP180;54819;48.030;14.710;2023-02-15T08:27:09;98928.60;;;4.00
68027;BMP180;54819;48.030;14.710;2023-02-15T08:29:37;98937.00;;;4.00
68027;BMP180;54819;48.030;14.710;2023-02-15T08:32:13;98937.00;;;4.10
68027;BMP180;54819;48.030;14.710;2023-02-15T08:34:41;98934.40;;;4.10
68027;BMP180;54819;48.030;14.710;2023-02-15T08:37:09;98936.00;;;4.20
68027;BMP180;54819;48.030;14.710;2023-02-15T08:39:36;98937.00;;;4.20
68027;BMP180;54819;48.030;14.710;2023-02-15T08:42:03;98936.20;;;4.30
68027;BMP180;54819;48.030;14.710;2023-02-15T08:44:31;98939.40;;;4.30
68027;BMP180;54819;48.030;14.710;2023-02-15T08:47:01;98938.40;;;4.32
68027;BMP180;54819;48.030;14.710;2023-02-15T08:49:29;98936.40;;;4.40
68027;BMP180;54819;48.030;14.710;2023-02-15T08:51:57;98939.60;;;4.50
68027;BMP180;54819;48.030;14.710;2023-02-15T08:54:24;98950.60;;;4.50
68027;BMP180;54819;48.030;14.710;2023-02-15T08:56:51;98955.40;;;4.50
68027;BMP180;54819;48.030;14.710;2023-02-15T08:59:20;98955.60;;;4.60
68027;BMP180;54819;48.030;14.710;2023-02-15T09:01:50;98958.80;;;4.60
68027;BMP180;54819;48.030;14.710;2023-02-15T09:04:17;98953.80;;;4.62
68027;BMP180;54819;48.030;14.710;2023-02-15T09:06:46;98954.80;;;4.70
68027;BMP180;54819;48.030;14.710;2023-02-15T09:09:18;98955.60;;;4.70
68027;BMP180;54819;48.030;14.710;2023-02-15T09:11:47;98959.80;;;4.76
68027;BMP180;54819;48.030;14.710;2023-02-15T09:14:20;98964.20;;;4.80
68027;BMP180;54819;48.030;14.710;2023-02-15T09:16:48;98962.60;;;4.80
68027;BMP180;54819;48.030;14.710;2023-02-15T09:19:19;98960.60;;;4.80
68027;BMP180;54819;48.030;14.710;2023-02-15T09:21:47;98959.40;;;4.80
68027;BMP180;54819;48.030;14.710;2023-02-15T09:24:15;98958.60;;;4.80
68027;BMP180;54819;48.030;14.710;2023-02-15T09:26:46;98959.00;;;4.80
68027;BMP180;54819;48.030;14.710;2023-02-15T09:29:14;98959.00;;;4.80
68027;BMP180;54819;48.030;14.710;2023-02-15T09:31:47;98959.00;;;4.90
68027;BMP180;54819;48.030;14.710;2023-02-15T09:34:18;98956.60;;;4.90
68027;BMP180;54819;48.030;14.710;2023-02-15T09:36:46;98959.60;;;4.90
68027;BMP180;54819;48.030;14.710;2023-02-15T09:39:24;98959.00;;;4.90
68027;BMP180;54819;48.030;14.710;2023-02-15T09:47:27;98957.00;;;4.90
68027;BMP180;54819;48.030;14.710;2023-02-15T09:56:07;98950.20;;;5.00
68027;BMP180;54819;48.030;14.710;2023-02-15T10:13:23;98949.40;;;5.04
68027;BMP180;54819;48.030;14.710;2023-02-15T10:16:30;98939.60;;;5.08
68027;BMP180;54819;48.030;14.710;2023-02-15T10:19:11;98942.80;;;5.10
68027;BMP180;54819;48.030;14.710;2023-02-15T10:27:21;98927.60;;;5.30
68027;BMP180;54819;48.030;14.710;2023-02-15T10:29:58;98927.00;;;5.40
68027;BMP180;54819;48.030;14.710;2023-02-15T10:32:32;98924.20;;;5.50
68027;BMP180;54819;48.030;14.710;2023-02-15T10:35:15;98920.80;;;5.60
68027;BMP180;54819;48.030;14.710;2023-02-15T10:38:24;98917.40;;;5.70
68027;BMP180;54819;48.030;14.710;2023-02-15T10:41:08;98912.00;;;5.80
68027;BMP180;54819;48.030;14.710;2023-02-15T10:46:44;98910.80;;;5.92
68027;BMP180;54819;48.030;14.710;2023-02-15T10:55:31;98902.40;;;6.14
68027;BMP180;54819;48.030;14.710;2023-02-15T11:00:47;98892.40;;;6.34
68027;BMP180;54819;48.030;14.710;2023-02-15T11:03:40;98883.00;;;6.40
68027;BMP180;54819;48.030;14.710;2023-02-15T11:06:17;98881.00;;;6.56
68027;BMP180;54819;48.030;14.710;2023-02-15T11:08:55;98878.40;;;6.60
68027;BMP180;54819;48.030;14.710;2023-02-15T11:11:27;98872.60;;;6.68
68027;BMP180;54819;48.030;14.710;2023-02-15T11:14:05;98866.80;;;6.70
68027;BMP180;54819;48.030;14.710;2023-02-15T11:16:44;98865.60;;;6.70
68027;BMP180;54819;48.030;14.710;2023-02-15T11:19:33;98862.20;;;6.68
68027;BMP180;54819;48.030;14.710;2023-02-15T11:22:05;98859.20;;;6.72
68027;BMP180;54819;48.030;14.710;2023-02-15T11:24:45;98853.80;;;6.72
68027;BMP180;54819;48.030;14.710;2023-02-15T11:27:25;98851.20;;;6.70
68027;BMP180;54819;48.030;14.710;2023-02-15T11:32:31;98845.00;;;6.76
68027;BMP180;54819;48.030;14.710;2023-02-15T11:37:50;98853.20;;;6.70
68027;BMP180;54819;48.030;14.710;2023-02-15T11:42:55;98843.40;;;6.70
68027;BMP180;54819;48.030;14.710;2023-02-15T11:47:54;98840.20;;;6.50
68027;BMP180;54819;48.030;14.710;2023-02-15T11:50:25;98839.40;;;6.40
68027;BMP180;54819;48.030;14.710;2023-02-15T11:52:57;98832.60;;;6.40
68027;BMP180;54819;48.030;14.710;2023-02-15T11:55:25;98833.60;;;6.38
68027;BMP180;54819;48.030;14.710;2023-02-15T11:58:22;98834.60;;;6.30
68027;BMP180;54819;48.030;14.710;2023-02-15T12:00:50;98832.20;;;6.38
68027;BMP180;54819;48.030;14.710;2023-02-15T12:03:24;98836.00;;;6.30
68027;BMP180;54819;48.030;14.710;2023-02-15T12:06:01;98833.80;;;6.22
68027;BMP180;54819;48.030;14.710;2023-02-15T12:08:37;98832.60;;;6.20
68027;BMP180;54819;48.030;14.710;2023-02-15T12:11:12;98830.40;;;6.20
68027;BMP180;54819;48.030;14.710;2023-02-15T12:16:24;98829.80;;;6.10
68027;BMP180;54819;48.030;14.710;2023-02-15T12:18:56;98828.60;;;6.04
68027;BMP180;54819;48.030;14.710;2023-02-15T12:21:33;98829.40;;;6.02
68027;BMP180;54819;48.030;14.710;2023-02-15T12:24:17;98829.00;;;6.04
68027;BMP180;54819;48.030;14.710;2023-02-15T12:26:58;98829.40;;;6.00
68027;BMP180;54819;48.030;14.710;2023-02-15T12:29:31;98826.40;;;6.00
68027;BMP180;54819;48.030;14.710;2023-02-15T12:32:02;98823.40;;;6.00
68027;BMP180;54819;48.030;14.710;2023-02-15T12:34:35;98820.80;;;5.90
68027;BMP180;54819;48.030;14.710;2023-02-15T12:37:16;98821.40;;;5.92
68027;BMP180;54819;48.030;14.710;2023-02-15T12:39:54;98822.20;;;6.00
68027;BMP180;54819;48.030;14.710;2023-02-15T12:42:22;98817.00;;;6.00
68027;BMP180;54819;48.030;14.710;2023-02-15T12:44:57;98813.80;;;6.00
68027;BMP180;54819;48.030;14.710;2023-02-15T12:47:25;98808.00;;;6.04
68027;BMP180;54819;48.030;14.710;2023-02-15T12:50:08;98805.40;;;6.00
68027;BMP180;54819;48.030;14.710;2023-02-15T12:52:48;98802.20;;;6.00
68027;BMP180;54819;48.030;14.710;2023-02-15T12:55:26;98803.40;;;5.90
68027;BMP180;54819;48.030;14.710;2023-02-15T12:58:16;98805.60;;;5.80
68027;BMP180;54819;48.030;14.710;2023-02-15T13:00:47;98800.20;;;5.80
68027;BMP180;54819;48.030;14.710;2023-02-15T13:03:21;98800.20;;;5.70
68027;BMP180;54819;48.030;14.710;2023-02-15T13:05:51;98797.40;;;5.60
68027;BMP180;54819;48.030;14.710;2023-02-15T13:08:22;98796.20;;;5.60
68027;BMP180;54819;48.030;14.710;2023-02-15T13:11:10;98788.00;;;5.54
68027;BMP180;54819;48.030;14.710;2023-02-15T13:13:54;98785.00;;;5.50
68027;BMP180;54819;48.030;14.710;2023-02-15T13:16:33;98780.40;;;5.50
68027;BMP180;54819;48.030;14.710;2023-02-15T13:19:15;98778.20;;;5.52
68027;BMP180;54819;48.030;14.710;2023-02-15T13:21:45;98769.00;;;5.60
68027;BMP180;54819;48.030;14.710;2023-02-15T13:24:18;98771.20;;;5.60
68027;BMP180;54819;48.030;14.710;2023-02-15T13:26:48;98773.00;;;5.60
68027;BMP180;54819;48.030;14.710;2023-02-15T13:29:46;98768.00;;;5.56
68027;BMP180;54819;48.030;14.710;2023-02-15T13:34:57;98762.40;;;5.60
68027;BMP180;54819;48.030;14.710;2023-02-15T13:38:02;98763.20;;;5.54
68027;BMP180;54819;48.030;14.710;2023-02-15T13:40:45;98762.20;;;5.60
68027;BMP180;54819;48.030;14.710;2023-02-15T13:43:40;98756.80;;;5.60
68027;BMP180;54819;48.030;14.710;2023-02-15T13:46:21;98752.80;;;5.60
68027;BMP180;54819;48.030;14.710;2023-02-15T13:49:01;98753.40;;;5.60
68027;BMP180;54819;48.030;14.710;2023-02-15T13:51:55;98754.20;;;5.60
68027;BMP180;54819;48.030;14.710;2023-02-15T14:15:11;98742.60;;;5.50
68027;BMP180;54819;48.030;14.710;2023-02-15T14:17:28;98746.20;;;5.42
68027;BMP180;54819;48.030;14.710;2023-02-15T14:20:14;98746.80;;;5.50
68027;BMP180;54819;48.030;14.710;2023-02-15T14:28:48;98743.60;;;5.42
68027;BMP180;54819;48.030;14.710;2023-02-15T14:31:21;98742.80;;;5.46
68027;BMP180;54819;48.030;14.710;2023-02-15T14:33:55;98739.40;;;5.48
68027;BMP180;54819;48.030;14.710;2023-02-15T14:36:24;98740.80;;;5.50
68027;BMP180;54819;48.030;14.710;2023-02-15T14:41:48;98736.40;;;5.60
68027;BMP180;54819;48.030;14.710;2023-02-15T14:44:29;98735.00;;;5.60
68027;BMP180;54819;48.030;14.710;2023-02-15T14:47:09;98729.00;;;5.62
68027;BMP180;54819;48.030;14.710;2023-02-15T14:49:38;98726.80;;;5.70
68027;BMP180;54819;48.030;14.710;2023-02-15T14:52:08;98723.40;;;5.70
68027;BMP180;54819;48.030;14.710;2023-02-15T15:02:48;98715.40;;;5.60
68027;BMP180;54819;48.030;14.710;2023-02-15T15:05:32;98713.80;;;5.50
68027;BMP180;54819;48.030;14.710;2023-02-15T15:08:03;98717.40;;;5.30
68027;BMP180;54819;48.030;14.710;2023-02-15T15:10:41;98720.40;;;5.20
68027;BMP180;54819;48.030;14.710;2023-02-15T15:13:38;98722.00;;;5.10
68027;BMP180;54819;48.030;14.710;2023-02-15T15:19:10;98721.60;;;4.70
68027;BMP180;54819;48.030;14.710;2023-02-15T15:27:42;98718.20;;;4.40
68027;BMP180;54819;48.030;14.710;2023-02-15T15:35:45;98715.20;;;4.10
68027;BMP180;54819;48.030;14.710;2023-02-15T15:49:39;98704.20;;;3.80
68027;BMP180;54819;48.030;14.710;2023-02-15T15:52:18;98700.00;;;3.80
68027;BMP180;54819;48.030;14.710;2023-02-15T15:54:49;98698.20;;;3.70
68027;BMP180;54819;48.030;14.710;2023-02-15T15:57:29;98703.40;;;3.70
68027;BMP180;54819;48.030;14.710;2023-02-15T15:59:57;98703.00;;;3.70
68027;BMP180;54819;48.030;14.710;2023-02-15T16:02:49;98701.80;;;3.68
68027;BMP180;54819;48.030;14.710;2023-02-15T16:05:17;98700.20;;;3.70
68027;BMP180;54819;48.030;14.710;2023-02-15T16:07:44;98701.40;;;3.72
68027;BMP180;54819;48.030;14.710;2023-02-15T16:10:23;98701.00;;;3.78
68027;BMP180;54819;48.030;14.710;2023-02-15T16:12:51;98701.80;;;3.70
68027;BMP180;54819;48.030;14.710;2023-02-15T16:15:36;98700.40;;;3.70
68027;BMP180;54819;48.030;14.710;2023-02-15T16:18:18;98706.00;;;3.60
68027;BMP180;54819;48.030;14.710;2023-02-15T16:20:53;98703.40;;;3.60
68027;BMP180;54819;48.030;14.710;2023-02-15T16:26:11;98702.20;;;3.60
68027;BMP180;54819;48.030;14.710;2023-02-15T16:28:53;98700.20;;;3.50
68027;BMP180;54819;48.030;14.710;2023-02-15T16:31:21;98703.20;;;3.50
68027;BMP180;54819;48.030;14.710;2023-02-15T16:33:55;98704.80;;;3.50
68027;BMP180;54819;48.030;14.710;2023-02-15T16:36:26;98702.00;;;3.40
68027;BMP180;54819;48.030;14.710;2023-02-15T16:41:28;98706.80;;;3.34
68027;BMP180;54819;48.030;14.710;2023-02-15T16:43:58;98710.00;;;3.30
68027;BMP180;54819;48.030;14.710;2023-02-15T16:46:33;98705.60;;;3.20
68027;BMP180;54819;48.030;14.710;2023-02-15T16:49:06;98711.20;;;3.20
68027;BMP180;54819;48.030;14.710;2023-02-15T16:51:35;98710.40;;;3.20
68027;BMP180;54819;48.030;14.710;2023-02-15T16:54:07;98711.20;;;3.20
68027;BMP180;54819;48.030;14.710;2023-02-15T16:56:35;98711.00;;;3.10
68027;BMP180;54819;48.030;14.710;2023-02-15T16:59:03;98712.20;;;3.10
68027;BMP180;54819;48.030;14.710;2023-02-15T17:01:32;98714.40;;;3.10
68027;BMP180;54819;48.030;14.710;2023-02-15T17:04:23;98716.00;;;3.00
68027;BMP180;54819;48.030;14.710;2023-02-15T17:07:16;98719.20;;;3.04